sensor_id;sensor_type;location;lat;lon;timestamp;pressure;altitude;pressure_sealevel;temperature;humidity
81162;BME280;70638;-33.792;151.032;2023-07-13T00:00:40;102165.09;;;11.79;69.03
81162;BME280;70638;-33.792;151.032;2023-07-13T00:03:11;102154.19;;;12.02;66.96
81162;BME280;70638;-33.792;151.032;2023-07-13T00:05:42;102153.55;;;12.09;68.08
81162;BME280;70638;-33.792;151.032;2023-07-13T00:08:13;102144.97;;;12.03;68.95
81162;BME280;70638;-33.792;151.032;2023-07-13T00:10:43;102139.20;;;12.05;67.35
81162;BME280;70638;-33.792;151.032;2023-07-13T00:13:19;102141.58;;;12.15;69.48
81162;BME280;70638;-33.792;151.032;2023-07-13T00:15:44;102143.22;;;12.14;68.05
81162;BME280;70638;-33.792;151.032;2023-07-13T00:18:15;102139.17;;;12.52;65.64
81162;BME280;70638;-33.792;151.032;2023-07-13T00:20:45;102138.77;;;12.44;68.38
81162;BME280;70638;-33.792;151.032;2023-07-13T00:23:16;102133.41;;;12.56;66.40
81162;BME280;70638;-33.792;151.032;2023-07-13T00:25:47;102130.45;;;12.56;68.12
81162;BME280;70638;-33.792;151.032;2023-07-13T00:28:18;102125.53;;;12.77;63.60
81162;BME280;70638;-33.792;151.032;2023-07-13T00:30:49;102122.09;;;12.73;66.00
81162;BME280;70638;-33.792;151.032;2023-07-13T00:33:19;102119.16;;;12.87;65.39
81162;BME280;70638;-33.792;151.032;2023-07-13T00:35:50;102107.58;;;12.86;64.96
81162;BME280;70638;-33.792;151.032;2023-07-13T00:38:20;102104.83;;;13.03;64.81
81162;BME280;70638;-33.792;151.032;2023-07-13T00:40:50;102100.14;;;13.09;65.19
81162;BME280;70638;-33.792;151.032;2023-07-13T00:43:22;102096.38;;;13.01;64.28
81162;BME280;70638;-33.792;151.032;2023-07-13T00:48:27;102089.83;;;13.11;64.94
81162;BME280;70638;-33.792;151.032;2023-07-13T00:50:53;102082.99;;;13.18;63.08
81162;BME280;70638;-33.792;151.032;2023-07-13T00:53:23;102078.89;;;13.31;62.30
81162;BME280;70638;-33.792;151.032;2023-07-13T00:55:57;102073.95;;;13.46;63.70
81162;BME280;70638;-33.792;151.032;2023-07-13T00:58:24;102066.95;;;13.61;62.32
81162;BME280;70638;-33.792;151.032;2023-07-13T01:00:55;102062.66;;;13.70;60.78
81162;BME280;70638;-33.792;151.032;2023-07-13T01:03:24;102059.30;;;13.73;61.37
81162;BME280;70638;-33.792;151.032;2023-07-13T01:05:56;102055.08;;;13.81;63.51
81162;BME280;70638;-33.792;151.032;2023-07-13T01:08:25;102053.25;;;13.87;61.24
81162;BME280;70638;-33.792;151.032;2023-07-13T01:10:56;102047.75;;;13.87;61.94
81162;BME280;70638;-33.792;151.032;2023-07-13T01:13:26;102036.65;;;13.96;61.28
81162;BME280;70638;-33.792;151.032;2023-07-13T01:15:58;102028.94;;;14.09;59.77
81162;BME280;70638;-33.792;151.032;2023-07-13T01:18:31;102036.00;;;14.11;59.68
81162;BME280;70638;-33.792;151.032;2023-07-13T01:21:00;102039.08;;;14.39;58.82
81162;BME280;70638;-33.792;151.032;2023-07-13T01:23:27;102037.88;;;14.54;57.27
81162;BME280;70638;-33.792;151.032;2023-07-13T01:25:58;102037.47;;;14.58;56.83
81162;BME280;70638;-33.792;151.032;2023-07-13T01:28:29;102039.92;;;14.61;58.86
81162;BME280;70638;-33.792;151.032;2023-07-13T01:30:58;102046.08;;;14.75;57.87
81162;BME280;70638;-33.792;151.032;2023-07-13T01:33:29;102043.78;;;14.95;56.15
81162;BME280;70638;-33.792;151.032;2023-07-13T01:36:01;102042.00;;;14.98;56.66
81162;BME280;70638;-33.792;151.032;2023-07-13T01:38:33;102043.73;;;14.94;57.04
81162;BME280;70638;-33.792;151.032;2023-07-13T01:41:00;102043.69;;;15.04;56.07
81162;BME280;70638;-33.792;151.032;2023-07-13T01:43:30;102043.50;;;15.06;57.16
81162;BME280;70638;-33.792;151.032;2023-07-13T01:46:01;102043.86;;;14.98;55.87
81162;BME280;70638;-33.792;151.032;2023-07-13T01:48:32;102035.81;;;15.05;55.98
81162;BME280;70638;-33.792;151.032;2023-07-13T01:51:03;102024.84;;;15.12;56.20
81162;BME280;70638;-33.792;151.032;2023-07-13T01:53:33;102021.06;;;14.88;55.92
81162;BME280;70638;-33.792;151.032;2023-07-13T01:56:04;102016.34;;;14.98;55.41
81162;BME280;70638;-33.792;151.032;2023-07-13T01:58:34;102008.86;;;15.07;55.62
81162;BME280;70638;-33.792;151.032;2023-07-13T02:01:10;101993.30;;;14.95;55.85
81162;BME280;70638;-33.792;151.032;2023-07-13T02:03:34;101986.50;;;15.07;54.39
81162;BME280;70638;-33.792;151.032;2023-07-13T02:06:06;101984.32;;;15.18;54.41
81162;BME280;70638;-33.792;151.032;2023-07-13T02:08:35;101988.21;;;15.30;54.82
81162;BME280;70638;-33.792;151.032;2023-07-13T02:11:06;101976.62;;;15.29;54.25
81162;BME280;70638;-33.792;151.032;2023-07-13T02:13:37;101970.93;;;15.44;54.31
81162;BME280;70638;-33.792;151.032;2023-07-13T02:16:07;101965.19;;;15.79;53.84
81162;BME280;70638;-33.792;151.032;2023-07-13T02:18:38;101964.02;;;15.72;54.01
81162;BME280;70638;-33.792;151.032;2023-07-13T02:21:12;101957.45;;;15.55;52.90
81162;BME280;70638;-33.792;151.032;2023-07-13T02:23:38;101953.62;;;15.65;53.14
81162;BME280;70638;-33.792;151.032;2023-07-13T02:26:09;101945.34;;;15.74;52.71
81162;BME280;70638;-33.792;151.032;2023-07-13T02:28:40;101940.42;;;15.79;53.42
81162;BME280;70638;-33.792;151.032;2023-07-13T02:31:12;101939.20;;;15.70;53.83
81162;BME280;70638;-33.792;151.032;2023-07-13T02:33:40;101932.44;;;16.06;52.00
81162;BME280;70638;-33.792;151.032;2023-07-13T02:36:12;101929.72;;;15.97;52.49
81162;BME280;70638;-33.792;151.032;2023-07-13T02:38:43;101926.14;;;15.96;50.76
81162;BME280;70638;-33.792;151.032;2023-07-13T02:41:12;101917.89;;;16.08;50.15
81162;BME280;70638;-33.792;151.032;2023-07-13T02:43:44;101908.60;;;15.98;51.48
81162;BME280;70638;-33.792;151.032;2023-07-13T02:46:13;101912.16;;;16.21;51.11
81162;BME280;70638;-33.792;151.032;2023-07-13T02:48:44;101901.68;;;16.06;52.80
81162;BME280;70638;-33.792;151.032;2023-07-13T02:51:14;101896.62;;;16.05;50.85
81162;BME280;70638;-33.792;151.032;2023-07-13T02:53:45;101895.22;;;16.53;47.68
81162;BME280;70638;-33.792;151.032;2023-07-13T02:56:15;101888.12;;;16.42;50.57
81162;BME280;70638;-33.792;151.032;2023-07-13T02:58:46;101883.34;;;16.32;51.11
81162;BME280;70638;-33.792;151.032;2023-07-13T03:01:21;101869.31;;;16.52;47.94
81162;BME280;70638;-33.792;151.032;2023-07-13T03:03:47;101868.52;;;16.70;47.88
81162;BME280;70638;-33.792;151.032;2023-07-13T03:06:18;101865.34;;;16.63;48.26
81162;BME280;70638;-33.792;151.032;2023-07-13T03:08:49;101858.41;;;16.50;49.81
81162;BME280;70638;-33.792;151.032;2023-07-13T03:11:20;101852.21;;;16.55;51.21
81162;BME280;70638;-33.792;151.032;2023-07-13T03:13:50;101847.25;;;16.54;49.89
81162;BME280;70638;-33.792;151.032;2023-07-13T03:16:21;101841.33;;;16.69;47.03
81162;BME280;70638;-33.792;151.032;2023-07-13T03:18:51;101832.06;;;16.59;49.50
81162;BME280;70638;-33.792;151.032;2023-07-13T03:21:21;101831.02;;;16.71;46.12
81162;BME280;70638;-33.792;151.032;2023-07-13T03:23:52;101832.11;;;16.67;47.67
81162;BME280;70638;-33.792;151.032;2023-07-13T03:26:28;101825.62;;;16.78;46.60
81162;BME280;70638;-33.792;151.032;2023-07-13T03:28:53;101826.09;;;16.81;46.90
81162;BME280;70638;-33.792;151.032;2023-07-13T03:31:25;101814.80;;;17.06;45.90
81162;BME280;70638;-33.792;151.032;2023-07-13T03:33:54;101813.23;;;16.94;45.32
81162;BME280;70638;-33.792;151.032;2023-07-13T03:36:26;101807.61;;;17.03;44.88
81162;BME280;70638;-33.792;151.032;2023-07-13T03:38:56;101801.84;;;17.05;44.70
81162;BME280;70638;-33.792;151.032;2023-07-13T03:41:26;101801.37;;;17.05;42.98
81162;BME280;70638;-33.792;151.032;2023-07-13T03:43:55;101804.52;;;17.02;46.19
81162;BME280;70638;-33.792;151.032;2023-07-13T03:46:30;101801.84;;;16.97;45.99
81162;BME280;70638;-33.792;151.032;2023-07-13T03:48:57;101807.20;;;16.99;44.81
81162;BME280;70638;-33.792;151.032;2023-07-13T03:51:27;101807.40;;;17.12;44.44
81162;BME280;70638;-33.792;151.032;2023-07-13T03:53:58;101799.68;;;17.36;42.44
81162;BME280;70638;-33.792;151.032;2023-07-13T03:56:29;101800.23;;;17.38;41.22
81162;BME280;70638;-33.792;151.032;2023-07-13T03:58:59;101796.23;;;17.58;41.67
81162;BME280;70638;-33.792;151.032;2023-07-13T04:01:29;101799.66;;;17.64;41.22
81162;BME280;70638;-33.792;151.032;2023-07-13T04:04:00;101804.40;;;17.72;41.12
81162;BME280;70638;-33.792;151.032;2023-07-13T04:06:31;101810.97;;;17.65;40.68
81162;BME280;70638;-33.792;151.032;2023-07-13T04:09:03;101815.80;;;17.70;40.13
81162;BME280;70638;-33.792;151.032;2023-07-13T04:11:32;101818.11;;;17.78;40.64
81162;BME280;70638;-33.792;151.032;2023-07-13T04:14:02;101816.53;;;17.68;40.59
81162;BME280;70638;-33.792;151.032;2023-07-13T04:16:33;101809.70;;;17.74;40.48
81162;BME280;70638;-33.792;151.032;2023-07-13T04:19:04;101802.95;;;17.58;40.94
81162;BME280;70638;-33.792;151.032;2023-07-13T04:21:34;101798.83;;;17.55;40.91
81162;BME280;70638;-33.792;151.032;2023-07-13T04:24:06;101801.75;;;17.45;40.35
81162;BME280;70638;-33.792;151.032;2023-07-13T04:26:40;101801.80;;;17.74;38.93
81162;BME280;70638;-33.792;151.032;2023-07-13T04:29:07;101799.67;;;17.74;39.94
81162;BME280;70638;-33.792;151.032;2023-07-13T04:31:36;101803.20;;;17.71;40.60
81162;BME280;70638;-33.792;151.032;2023-07-13T04:34:07;101800.92;;;17.67;40.56
81162;BME280;70638;-33.792;151.032;2023-07-13T04:36:40;101799.50;;;17.41;42.56
81162;BME280;70638;-33.792;151.032;2023-07-13T04:39:08;101795.95;;;17.50;40.23
81162;BME280;70638;-33.792;151.032;2023-07-13T04:41:38;101788.70;;;17.74;39.38
81162;BME280;70638;-33.792;151.032;2023-07-13T04:44:09;101787.91;;;17.53;39.73
81162;BME280;70638;-33.792;151.032;2023-07-13T04:46:40;101790.00;;;17.62;39.67
81162;BME280;70638;-33.792;151.032;2023-07-13T04:49:10;101793.09;;;17.38;41.97
81162;BME280;70638;-33.792;151.032;2023-07-13T04:51:49;101786.27;;;17.20;44.12
81162;BME280;70638;-33.792;151.032;2023-07-13T04:54:11;101782.36;;;17.27;43.46
81162;BME280;70638;-33.792;151.032;2023-07-13T04:56:42;101778.04;;;17.16;43.37
81162;BME280;70638;-33.792;151.032;2023-07-13T04:59:13;101779.36;;;17.06;43.21
81162;BME280;70638;-33.792;151.032;2023-07-13T05:01:43;101778.17;;;16.95;44.80
81162;BME280;70638;-33.792;151.032;2023-07-13T05:04:14;101774.02;;;16.86;45.30
81162;BME280;70638;-33.792;151.032;2023-07-13T05:06:44;101772.23;;;16.86;44.63
81162;BME280;70638;-33.792;151.032;2023-07-13T05:09:15;101767.86;;;16.78;45.92
81162;BME280;70638;-33.792;151.032;2023-07-13T05:11:45;101763.16;;;16.72;46.06
81162;BME280;70638;-33.792;151.032;2023-07-13T05:14:23;101755.72;;;16.68;47.76
81162;BME280;70638;-33.792;151.032;2023-07-13T05:16:46;101757.17;;;16.65;46.35
81162;BME280;70638;-33.792;151.032;2023-07-13T05:19:16;101763.19;;;16.78;46.21
81162;BME280;70638;-33.792;151.032;2023-07-13T05:21:47;101762.01;;;16.75;45.47
81162;BME280;70638;-33.792;151.032;2023-07-13T05:24:18;101759.08;;;16.76;47.75
81162;BME280;70638;-33.792;151.032;2023-07-13T05:26:48;101755.38;;;16.82;46.71
81162;BME280;70638;-33.792;151.032;2023-07-13T05:29:18;101752.83;;;16.83;45.71
81162;BME280;70638;-33.792;151.032;2023-07-13T05:31:50;101754.44;;;16.68;47.76
81162;BME280;70638;-33.792;151.032;2023-07-13T05:34:19;101758.84;;;16.52;46.98
81162;BME280;70638;-33.792;151.032;2023-07-13T05:36:50;101758.52;;;16.49;48.96
81162;BME280;70638;-33.792;151.032;2023-07-13T05:39:21;101756.42;;;16.40;48.39
81162;BME280;70638;-33.792;151.032;2023-07-13T05:41:50;101756.12;;;16.47;50.37
81162;BME280;70638;-33.792;151.032;2023-07-13T05:44:22;101764.58;;;16.41;49.80
81162;BME280;70638;-33.792;151.032;2023-07-13T05:46:51;101761.98;;;16.43;50.46
81162;BME280;70638;-33.792;151.032;2023-07-13T05:49:22;101766.45;;;16.31;51.35
81162;BME280;70638;-33.792;151.032;2023-07-13T05:51:53;101764.78;;;16.23;51.28
81162;BME280;70638;-33.792;151.032;2023-07-13T05:54:23;101767.38;;;16.12;52.42
81162;BME280;70638;-33.792;151.032;2023-07-13T05:57:21;101769.23;;;16.03;53.73
81162;BME280;70638;-33.792;151.032;2023-07-13T05:59:25;101774.74;;;16.03;52.66
81162;BME280;70638;-33.792;151.032;2023-07-13T06:01:58;101780.23;;;16.06;52.90
81162;BME280;70638;-33.792;151.032;2023-07-13T06:04:26;101785.36;;;15.95;54.10
81162;BME280;70638;-33.792;151.032;2023-07-13T06:06:56;101785.18;;;15.73;54.63
81162;BME280;70638;-33.792;151.032;2023-07-13T06:09:27;101786.31;;;15.68;55.15
81162;BME280;70638;-33.792;151.032;2023-07-13T06:11:57;101793.34;;;15.59;55.74
81162;BME280;70638;-33.792;151.032;2023-07-13T06:14:28;101789.56;;;15.49;55.77
81162;BME280;70638;-33.792;151.032;2023-07-13T06:16:59;101794.01;;;15.43;56.31
81162;BME280;70638;-33.792;151.032;2023-07-13T06:19:33;101796.61;;;15.30;57.28
81162;BME280;70638;-33.792;151.032;2023-07-13T06:22:01;101798.91;;;15.05;58.16
81162;BME280;70638;-33.792;151.032;2023-07-13T06:24:30;101798.73;;;14.87;58.72
81162;BME280;70638;-33.792;151.032;2023-07-13T06:27:01;101801.80;;;14.71;59.52
81162;BME280;70638;-33.792;151.032;2023-07-13T06:29:32;101803.36;;;14.51;60.34
81162;BME280;70638;-33.792;151.032;2023-07-13T06:32:03;101808.06;;;14.36;60.58
81162;BME280;70638;-33.792;151.032;2023-07-13T06:34:33;101814.00;;;14.21;61.08
81162;BME280;70638;-33.792;151.032;2023-07-13T06:37:04;101817.16;;;14.13;61.47
81162;BME280;70638;-33.792;151.032;2023-07-13T06:39:35;101816.77;;;14.02;62.15
81162;BME280;70638;-33.792;151.032;2023-07-13T06:42:06;101819.72;;;13.82;62.73
81162;BME280;70638;-33.792;151.032;2023-07-13T06:44:36;101816.27;;;13.67;62.70
81162;BME280;70638;-33.792;151.032;2023-07-13T06:47:07;101812.83;;;13.68;61.93
81162;BME280;70638;-33.792;151.032;2023-07-13T06:49:37;101806.99;;;13.62;63.52
81162;BME280;70638;-33.792;151.032;2023-07-13T06:52:07;101802.98;;;13.41;64.00
81162;BME280;70638;-33.792;151.032;2023-07-13T06:54:38;101804.30;;;13.25;64.08
81162;BME280;70638;-33.792;151.032;2023-07-13T06:57:08;101813.42;;;13.06;64.80
81162;BME280;70638;-33.792;151.032;2023-07-13T06:59:39;101815.49;;;12.84;65.04
81162;BME280;70638;-33.792;151.032;2023-07-13T07:02:16;101820.11;;;12.73;66.65
81162;BME280;70638;-33.792;151.032;2023-07-13T07:04:41;101816.17;;;12.64;67.34
81162;BME280;70638;-33.792;151.032;2023-07-13T07:07:11;101825.81;;;12.47;67.65
81162;BME280;70638;-33.792;151.032;2023-07-13T07:09:41;101825.16;;;12.38;67.93
81162;BME280;70638;-33.792;151.032;2023-07-13T07:12:12;101825.07;;;12.33;67.71
81162;BME280;70638;-33.792;151.032;2023-07-13T07:14:43;101829.14;;;12.29;67.48
81162;BME280;70638;-33.792;151.032;2023-07-13T07:17:13;101827.04;;;12.11;68.75
81162;BME280;70638;-33.792;151.032;2023-07-13T07:19:44;101829.30;;;11.96;69.09
81162;BME280;70638;-33.792;151.032;2023-07-13T07:22:18;101828.80;;;11.98;69.21
81162;BME280;70638;-33.792;151.032;2023-07-13T07:24:44;101831.08;;;11.94;68.79
81162;BME280;70638;-33.792;151.032;2023-07-13T07:27:15;101833.91;;;11.88;70.34
81162;BME280;70638;-33.792;151.032;2023-07-13T07:29:46;101834.94;;;11.68;71.11
81162;BME280;70638;-33.792;151.032;2023-07-13T07:32:17;101837.22;;;11.61;71.34
81162;BME280;70638;-33.792;151.032;2023-07-13T07:34:47;101830.89;;;11.50;71.39
81162;BME280;70638;-33.792;151.032;2023-07-13T07:37:17;101827.58;;;11.42;72.50
81162;BME280;70638;-33.792;151.032;2023-07-13T07:39:50;101826.31;;;11.44;72.44
81162;BME280;70638;-33.792;151.032;2023-07-13T07:42:18;101822.66;;;11.39;72.74
81162;BME280;70638;-33.792;151.032;2023-07-13T07:44:53;101825.46;;;11.29;72.89
81162;BME280;70638;-33.792;151.032;2023-07-13T07:47:20;101838.70;;;11.21;72.99
81162;BME280;70638;-33.792;151.032;2023-07-13T07:49:50;101848.12;;;11.21;73.27
81162;BME280;70638;-33.792;151.032;2023-07-13T07:52:21;101847.52;;;11.17;73.32
81162;BME280;70638;-33.792;151.032;2023-07-13T07:54:52;101843.59;;;11.11;73.85
81162;BME280;70638;-33.792;151.032;2023-07-13T07:57:22;101845.23;;;11.06;73.54
81162;BME280;70638;-33.792;151.032;2023-07-13T07:59:53;101846.48;;;10.97;73.95
81162;BME280;70638;-33.792;151.032;2023-07-13T08:02:23;101855.81;;;10.95;74.56
81162;BME280;70638;-33.792;151.032;2023-07-13T08:05:02;101855.03;;;10.95;74.69
81162;BME280;70638;-33.792;151.032;2023-07-13T08:07:24;101861.31;;;10.93;74.96
81162;BME280;70638;-33.792;151.032;2023-07-13T08:09:55;101858.20;;;10.82;75.32
81162;BME280;70638;-33.792;151.032;2023-07-13T08:12:25;101861.60;;;10.70;75.71
81162;BME280;70638;-33.792;151.032;2023-07-13T08:15:02;101866.75;;;10.67;75.84
81162;BME280;70638;-33.792;151.032;2023-07-13T08:17:26;101870.85;;;10.64;76.38
81162;BME280;70638;-33.792;151.032;2023-07-13T08:19:57;101875.95;;;10.66;76.44
81162;BME280;70638;-33.792;151.032;2023-07-13T08:22:28;101879.23;;;10.59;76.84
81162;BME280;70638;-33.792;151.032;2023-07-13T08:25:00;101879.02;;;10.47;77.71
81162;BME280;70638;-33.792;151.032;2023-07-13T08:27:33;101885.72;;;10.33;77.72
81162;BME280;70638;-33.792;151.032;2023-07-13T08:30:00;101888.05;;;10.20;79.10
81162;BME280;70638;-33.792;151.032;2023-07-13T08:32:30;101887.60;;;10.12;79.74
81162;BME280;70638;-33.792;151.032;2023-07-13T08:35:01;101895.64;;;10.06;79.53
81162;BME280;70638;-33.792;151.032;2023-07-13T08:37:32;101902.38;;;10.04;79.81
81162;BME280;70638;-33.792;151.032;2023-07-13T08:40:02;101904.11;;;10.09;79.41
81162;BME280;70638;-33.792;151.032;2023-07-13T08:42:44;101901.68;;;10.09;78.62
81162;BME280;70638;-33.792;151.032;2023-07-13T08:45:16;101905.34;;;10.18;78.69
81162;BME280;70638;-33.792;151.032;2023-07-13T08:47:36;101905.51;;;10.30;78.38
81162;BME280;70638;-33.792;151.032;2023-07-13T08:50:04;101906.92;;;10.28;79.26
81162;BME280;70638;-33.792;151.032;2023-07-13T08:52:38;101906.16;;;10.33;78.13
81162;BME280;70638;-33.792;151.032;2023-07-13T08:55:20;101916.29;;;10.20;79.03
81162;BME280;70638;-33.792;151.032;2023-07-13T08:57:35;101913.12;;;10.17;79.52
81162;BME280;70638;-33.792;151.032;2023-07-13T09:00:11;101919.66;;;10.20;79.74
81162;BME280;70638;-33.792;151.032;2023-07-13T09:02:49;101920.43;;;10.10;79.61
81162;BME280;70638;-33.792;151.032;2023-07-13T09:08:02;101911.89;;;10.14;78.92
81162;BME280;70638;-33.792;151.032;2023-07-13T09:10:23;101906.52;;;10.28;78.39
81162;BME280;70638;-33.792;151.032;2023-07-13T09:12:55;101912.31;;;10.26;78.22
81162;BME280;70638;-33.792;151.032;2023-07-13T09:15:32;101911.66;;;10.29;77.69
81162;BME280;70638;-33.792;151.032;2023-07-13T09:17:49;101915.23;;;10.32;77.41
81162;BME280;70638;-33.792;151.032;2023-07-13T09:22:46;101910.61;;;10.29;77.10
81162;BME280;70638;-33.792;151.032;2023-07-13T09:25:34;101907.78;;;10.25;77.12
81162;BME280;70638;-33.792;151.032;2023-07-13T09:27:46;101911.69;;;10.26;76.99
81162;BME280;70638;-33.792;151.032;2023-07-13T09:30:30;101908.91;;;10.24;76.90
81162;BME280;70638;-33.792;151.032;2023-07-13T09:32:50;101905.66;;;10.28;76.51
81162;BME280;70638;-33.792;151.032;2023-07-13T09:35:19;101904.00;;;10.29;76.16
81162;BME280;70638;-33.792;151.032;2023-07-13T09:37:46;101901.89;;;10.28;76.05
81162;BME280;70638;-33.792;151.032;2023-07-13T09:40:22;101900.70;;;10.25;75.76
81162;BME280;70638;-33.792;151.032;2023-07-13T09:42:50;101902.44;;;10.24;75.92
81162;BME280;70638;-33.792;151.032;2023-07-13T09:45:28;101899.38;;;10.21;75.21
81162;BME280;70638;-33.792;151.032;2023-07-13T09:47:47;101900.69;;;10.17;74.67
81162;BME280;70638;-33.792;151.032;2023-07-13T09:50:18;101901.43;;;10.15;74.52
81162;BME280;70638;-33.792;151.032;2023-07-13T09:52:49;101905.72;;;10.11;74.77
81162;BME280;70638;-33.792;151.032;2023-07-13T09:55:35;101904.68;;;10.07;74.77
81162;BME280;70638;-33.792;151.032;2023-07-13T09:57:49;101906.28;;;10.03;74.93
81162;BME280;70638;-33.792;151.032;2023-07-13T10:00:24;101907.72;;;10.02;75.04
81162;BME280;70638;-33.792;151.032;2023-07-13T10:03:18;101911.17;;;10.02;75.49
81162;BME280;70638;-33.792;151.032;2023-07-13T10:05:21;101916.72;;;10.02;74.79
81162;BME280;70638;-33.792;151.032;2023-07-13T10:07:50;101917.10;;;10.07;73.71
81162;BME280;70638;-33.792;151.032;2023-07-13T10:10:23;101914.39;;;10.11;73.26
81162;BME280;70638;-33.792;151.032;2023-07-13T10:12:52;101921.11;;;10.17;72.42
81162;BME280;70638;-33.792;151.032;2023-07-13T10:15:24;101917.40;;;10.15;72.27
81162;BME280;70638;-33.792;151.032;2023-07-13T10:17:55;101918.80;;;10.21;71.54
81162;BME280;70638;-33.792;151.032;2023-07-13T10:20:23;101916.73;;;10.22;71.69
81162;BME280;70638;-33.792;151.032;2023-07-13T10:23:04;101917.23;;;10.37;70.36
81162;BME280;70638;-33.792;151.032;2023-07-13T10:25:26;101918.94;;;10.52;69.64
81162;BME280;70638;-33.792;151.032;2023-07-13T10:27:58;101917.19;;;10.60;69.16
81162;BME280;70638;-33.792;151.032;2023-07-13T10:30:28;101922.25;;;10.57;69.18
81162;BME280;70638;-33.792;151.032;2023-07-13T10:32:58;101919.75;;;10.51;69.62
81162;BME280;70638;-33.792;151.032;2023-07-13T10:35:27;101921.62;;;10.48;69.60
81162;BME280;70638;-33.792;151.032;2023-07-13T10:38:04;101921.12;;;10.46;69.34
81162;BME280;70638;-33.792;151.032;2023-07-13T10:40:35;101922.07;;;10.41;69.65
81162;BME280;70638;-33.792;151.032;2023-07-13T10:43:05;101921.52;;;10.40;69.53
81162;BME280;70638;-33.792;151.032;2023-07-13T10:45:30;101923.88;;;10.37;69.97
81162;BME280;70638;-33.792;151.032;2023-07-13T10:47:59;101929.30;;;10.35;69.78
81162;BME280;70638;-33.792;151.032;2023-07-13T10:50:29;101927.93;;;10.29;70.27
81162;BME280;70638;-33.792;151.032;2023-07-13T10:53:18;101934.55;;;10.15;70.99
81162;BME280;70638;-33.792;151.032;2023-07-13T10:55:36;101936.77;;;9.97;71.69
81162;BME280;70638;-33.792;151.032;2023-07-13T10:58:18;101940.06;;;9.75;72.35
81162;BME280;70638;-33.792;151.032;2023-07-13T11:00:49;101936.96;;;9.75;71.95
81162;BME280;70638;-33.792;151.032;2023-07-13T11:03:00;101938.56;;;9.82;71.68
81162;BME280;70638;-33.792;151.032;2023-07-13T11:05:32;101938.87;;;9.79;71.81
81162;BME280;70638;-33.792;151.032;2023-07-13T11:08:20;101934.64;;;9.82;71.56
81162;BME280;70638;-33.792;151.032;2023-07-13T11:10:54;101935.16;;;9.84;71.75
81162;BME280;70638;-33.792;151.032;2023-07-13T11:13:02;101939.00;;;9.78;72.62
81162;BME280;70638;-33.792;151.032;2023-07-13T11:15:43;101932.11;;;9.84;72.66
81162;BME280;70638;-33.792;151.032;2023-07-13T11:18:11;101933.50;;;9.76;72.60
81162;BME280;70638;-33.792;151.032;2023-07-13T11:20:35;101938.62;;;9.74;72.93
81162;BME280;70638;-33.792;151.032;2023-07-13T11:23:19;101939.44;;;9.83;72.71
81162;BME280;70638;-33.792;151.032;2023-07-13T11:25:37;101938.39;;;9.87;72.73
81162;BME280;70638;-33.792;151.032;2023-07-13T11:28:16;101932.23;;;9.90;72.57
81162;BME280;70638;-33.792;151.032;2023-07-13T11:30:49;101931.58;;;9.87;72.64
81162;BME280;70638;-33.792;151.032;2023-07-13T11:33:15;101934.39;;;9.83;73.37
81162;BME280;70638;-33.792;151.032;2023-07-13T11:35:41;101933.92;;;9.80;73.16
81162;BME280;70638;-33.792;151.032;2023-07-13T11:38:22;101937.61;;;9.78;73.22
81162;BME280;70638;-33.792;151.032;2023-07-13T11:40:38;101939.22;;;9.76;73.30
81162;BME280;70638;-33.792;151.032;2023-07-13T11:43:13;101937.36;;;9.74;73.63
81162;BME280;70638;-33.792;151.032;2023-07-13T11:45:38;101938.06;;;9.75;74.01
81162;BME280;70638;-33.792;151.032;2023-07-13T11:48:23;101939.45;;;9.78;73.96
81162;BME280;70638;-33.792;151.032;2023-07-13T11:50:39;101940.62;;;9.74;74.32
81162;BME280;70638;-33.792;151.032;2023-07-13T11:53:10;101941.55;;;9.78;74.29
81162;BME280;70638;-33.792;151.032;2023-07-13T11:55:41;101935.40;;;9.72;74.43
81162;BME280;70638;-33.792;151.032;2023-07-13T11:58:19;101936.47;;;9.77;74.67
81162;BME280;70638;-33.792;151.032;2023-07-13T12:00:44;101941.19;;;9.82;74.60
81162;BME280;70638;-33.792;151.032;2023-07-13T12:03:20;101942.12;;;9.79;74.65
81162;BME280;70638;-33.792;151.032;2023-07-13T12:05:56;101937.92;;;9.72;74.72
81162;BME280;70638;-33.792;151.032;2023-07-13T12:08:17;101940.15;;;9.69;75.11
81162;BME280;70638;-33.792;151.032;2023-07-13T12:10:44;101940.48;;;9.69;75.21
81162;BME280;70638;-33.792;151.032;2023-07-13T12:13:15;101942.48;;;9.70;75.00
81162;BME280;70638;-33.792;151.032;2023-07-13T12:15:46;101938.62;;;9.60;74.99
81162;BME280;70638;-33.792;151.032;2023-07-13T12:18:23;101938.19;;;9.57;75.22
81162;BME280;70638;-33.792;151.032;2023-07-13T12:20:47;101935.19;;;9.60;75.22
81162;BME280;70638;-33.792;151.032;2023-07-13T12:23:25;101940.05;;;9.69;74.93
81162;BME280;70638;-33.792;151.032;2023-07-13T12:25:48;101936.81;;;9.66;75.07
81162;BME280;70638;-33.792;151.032;2023-07-13T12:28:22;101935.94;;;9.69;74.68
81162;BME280;70638;-33.792;151.032;2023-07-13T12:30:50;101938.97;;;9.64;75.13
81162;BME280;70638;-33.792;151.032;2023-07-13T12:33:20;101938.64;;;9.57;74.82
81162;BME280;70638;-33.792;151.032;2023-07-13T12:35:52;101936.36;;;9.54;74.30
81162;BME280;70638;-33.792;151.032;2023-07-13T12:38:25;101937.98;;;9.47;74.29
81162;BME280;70638;-33.792;151.032;2023-07-13T12:40:53;101938.45;;;9.44;73.96
81162;BME280;70638;-33.792;151.032;2023-07-13T12:43:23;101933.61;;;9.47;73.53
81162;BME280;70638;-33.792;151.032;2023-07-13T12:46:01;101936.08;;;9.44;73.45